»·PEaware :: N143VT KPRC-KTEX

N143VT :: KPRC-KTEX

FLIGHT INFORMATION

Flight Status: Arrived
Operator: Privately registered:
United States
More flights under this callsign
Pilot: Anonymous 16492 (16492)
Aircraft: Unknown
(EPIC)
More flights by this aircraft type
Origin: KPRC Love
United States
Destination: KTEX Telluride Regl
United States
More flights between these airports :: More routes between these airports
Route: KPRC PRC1 DRK INW RSK ETL KTEX
File this flight plan on PilotEdge
Remarks:
Altitude:
(Current/Filed)
19,000ft
Speed:
(Current/Filed)
330kts
Departed: 18-Sep-18 06:31 PM
Arrived: 18-Sep-18 07:51 PM
Distance/Time
Traveled:
295nm/1:20
Distance/Time
To Go:
Arrived

Flight Plot

Page will automatically refresh every two minutes.

Flight plan parsing failed; only flown route is shown


Map Options




Map Legend


Flown Route
Filed Route
Departure Airport
Arrival Airport
Navaid (VOR, NDB)
Fix

Horizontal Profiles

Position Reports

Time Latitude Longitude Heading Altitude Ground
Speed
18-Sep-18 18:15 34.646517 -112.424495 38 5045ft 0kts
18-Sep-18 18:16 34.646517 -112.424495 38 5045ft 0kts
18-Sep-18 18:17 34.646517 -112.424495 38 5045ft 0kts
18-Sep-18 18:18 34.646517 -112.424495 38 5045ft 0kts
18-Sep-18 18:19 34.646517 -112.424495 38 5045ft 0kts
18-Sep-18 18:20 34.646517 -112.424495 38 5045ft 0kts
18-Sep-18 18:21 34.646517 -112.424495 38 5045ft 0kts
18-Sep-18 18:22 34.646517 -112.424495 38 5045ft 0kts
18-Sep-18 18:23 34.646601 -112.424481 339 5045ft 0kts
18-Sep-18 18:24 34.646601 -112.424481 339 5045ft 0kts
18-Sep-18 18:25 34.646601 -112.424481 339 5045ft 0kts
18-Sep-18 18:26 34.646601 -112.424481 339 5045ft 0kts
18-Sep-18 18:27 34.648018 -112.424593 41 5045ft 29kts
18-Sep-18 18:28 34.654414 -112.417860 40 5045ft 30kts
18-Sep-18 18:29 34.656820 -112.415560 333 5045ft 0kts
18-Sep-18 18:30 34.656820 -112.415560 333 5045ft 0kts
18-Sep-18 18:31 34.656820 -112.415560 333 5045ft 0kts
18-Sep-18 18:32 34.656820 -112.415561 333 5045ft 0kts
18-Sep-18 18:33 34.652825 -112.421136 222 5054ft 118kts
18-Sep-18 18:34 34.615909 -112.449550 213 7220ft 166kts
18-Sep-18 18:35 34.624253 -112.489784 357 9355ft 193kts
18-Sep-18 18:36 34.675240 -112.484715 6 11627ft 189kts
18-Sep-18 18:37 34.714796 -112.444242 60 12937ft 219kts
18-Sep-18 18:38 34.733537 -112.366291 76 13876ft 251kts
18-Sep-18 18:39 34.750019 -112.285859 75 15888ft 242kts
18-Sep-18 18:40 34.767184 -112.205423 75 17104ft 250kts
18-Sep-18 18:41 34.784757 -112.123484 75 18082ft 253kts
18-Sep-18 18:42 34.802615 -112.040071 76 18934ft 259kts
18-Sep-18 18:43 34.821759 -111.950267 76 18966ft 287kts
18-Sep-18 18:44 34.842343 -111.853364 76 18965ft 301kts
18-Sep-18 18:45 34.863489 -111.753424 76 18964ft 308kts
18-Sep-18 18:46 34.884835 -111.652114 76 18966ft 311kts
18-Sep-18 18:47 34.906233 -111.550116 76 19009ft 312kts
18-Sep-18 18:48 34.927633 -111.447635 76 19080ft 312kts
18-Sep-18 18:49 34.948952 -111.345078 77 19125ft 315kts
18-Sep-18 18:50 34.970514 -111.240874 77 19053ft 319kts
18-Sep-18 18:51 34.992170 -111.135713 77 18977ft 322kts
18-Sep-18 18:52 35.013920 -111.029528 77 18955ft 322kts
18-Sep-18 18:53 35.031847 -110.941656 77 18955ft 321kts
18-Sep-18 18:54 35.056841 -110.818645 76 18955ft 319kts
18-Sep-18 18:55 35.096419 -110.743024 52 18956ft 319kts
18-Sep-18 18:56 35.159584 -110.644183 50 18954ft 318kts
18-Sep-18 18:57 35.205275 -110.573459 50 18954ft 318kts
18-Sep-18 18:58 35.259809 -110.488954 50 18955ft 318kts
18-Sep-18 18:59 35.323576 -110.389896 50 18955ft 318kts
18-Sep-18 19:00 35.368817 -110.319447 51 18952ft 318kts
18-Sep-18 19:01 35.423509 -110.234086 51 18953ft 318kts
18-Sep-18 19:02 35.477841 -110.149080 51 18954ft 318kts
18-Sep-18 19:03 35.532203 -110.063823 51 19001ft 317kts
18-Sep-18 19:04 35.595142 -109.964855 51 19068ft 315kts
18-Sep-18 19:05 35.639912 -109.894275 51 19100ft 315kts
18-Sep-18 19:06 35.702781 -109.794923 51 19101ft 316kts
18-Sep-18 19:07 35.747771 -109.723650 51 19101ft 316kts
18-Sep-18 19:08 35.810660 -109.623774 51 19102ft 317kts
18-Sep-18 19:09 35.855641 -109.552160 51 19102ft 317kts
18-Sep-18 19:10 35.909366 -109.466431 51 19102ft 317kts
18-Sep-18 19:11 35.963278 -109.380185 51 19103ft 317kts
18-Sep-18 19:12 36.016781 -109.294390 52 19100ft 317kts
18-Sep-18 19:13 36.070384 -109.208211 52 19101ft 317kts
18-Sep-18 19:14 36.123851 -109.122003 51 19099ft 317kts
18-Sep-18 19:15 36.177374 -109.035512 51 19099ft 317kts
18-Sep-18 19:16 36.230722 -108.949095 50 19099ft 316kts
18-Sep-18 19:17 36.284149 -108.862357 50 19067ft 317kts
18-Sep-18 19:18 36.337568 -108.775384 50 19007ft 318kts
18-Sep-18 19:19 36.390906 -108.688315 50 18973ft 318kts
18-Sep-18 19:20 36.444150 -108.601183 50 18973ft 317kts
18-Sep-18 19:21 36.497390 -108.513830 50 18974ft 317kts
18-Sep-18 19:22 36.550419 -108.426600 50 18974ft 317kts
18-Sep-18 19:23 36.602270 -108.341095 51 18972ft 317kts
18-Sep-18 19:24 36.655188 -108.253600 51 18971ft 316kts
18-Sep-18 19:25 36.707989 -108.166077 51 18971ft 316kts
18-Sep-18 19:26 36.776015 -108.110104 0 18975ft 304kts
18-Sep-18 19:27 36.859883 -108.113406 352 18989ft 301kts
18-Sep-18 19:28 36.943005 -108.122744 351 19016ft 301kts
18-Sep-18 19:29 37.026292 -108.132832 351 19022ft 303kts
18-Sep-18 19:30 37.110593 -108.143173 351 19016ft 308kts
18-Sep-18 19:31 37.195910 -108.153630 351 19025ft 311kts
18-Sep-18 19:32 37.282165 -108.164240 351 19041ft 313kts
18-Sep-18 19:33 37.368723 -108.174917 351 19041ft 314kts
18-Sep-18 19:34 37.455551 -108.185652 351 19048ft 314kts
18-Sep-18 19:35 37.547484 -108.197061 352 17657ft 344kts
18-Sep-18 19:36 37.627852 -108.206951 351 16998ft 252kts
18-Sep-18 19:37 37.701241 -108.216195 351 16993ft 282kts
18-Sep-18 19:38 37.781872 -108.226246 352 16992ft 299kts
18-Sep-18 19:39 37.862735 -108.236347 351 16990ft 287kts
18-Sep-18 19:40 37.938970 -108.245887 351 16984ft 263kts
18-Sep-18 19:41 38.009850 -108.253461 3 16981ft 253kts
18-Sep-18 19:42 38.074901 -108.275892 316 16962ft 241kts
18-Sep-18 19:43 38.094441 -108.353264 239 15952ft 236kts
18-Sep-18 19:44 38.052205 -108.334685 102 14470ft 222kts
18-Sep-18 19:45 38.044388 -108.265694 117 13038ft 177kts
18-Sep-18 19:46 38.026756 -108.212486 115 12992ft 166kts
18-Sep-18 19:47 38.009126 -108.156324 114 12991ft 172kts
18-Sep-18 19:48 37.994136 -108.098549 108 12987ft 173kts
18-Sep-18 19:49 37.981353 -108.039990 110 12136ft 155kts
18-Sep-18 19:50 37.970689 -107.988498 106 10816ft 156kts
18-Sep-18 19:51 37.960657 -107.941210 107 9495ft 134kts
18-Sep-18 19:52 37.953089 -107.905351 104 9082ft 47kts
18-Sep-18 19:53 37.953787 -107.901195 153 9082ft 0kts
18-Sep-18 19:54 37.953784 -107.901193 153 9081ft 0kts
18-Sep-18 19:55 37.953784 -107.901193 153 9081ft 0kts

Navigation Log

Ident Type
Flight plan parsing failed, navigation log unavailable